Time;durP1;ratioP1;P1;durP2;ratioP2;P2;SDS_P1;SDS_P2;PMS_P1;PMS_P2;Temp;Humidity;BMP_temperature;BMP_pressure;BME280_temperature;BME280_humidity;BME280_pressure;Samples;Min_cycle;Max_cycle;Signal;HPM_P1;HPM_P2
2022/07/18 00:01:22;;;;;;;6.63;2.40;;;;;16.20;101887.00;;;;10443355;28;20213;-79
2022/07/18 00:06:25;;;;;;;8.17;2.40;;;;;16.10;101877.00;;;;10479856;28;20194;-79
2022/07/18 00:11:27;;;;;;;4.30;2.23;;;;;16.00;101873.00;;;;10478655;28;20245;-79
2022/07/18 00:16:29;;;;;;;4.07;1.83;;;;;15.90;101871.00;;;;10437913;28;20198;-79
2022/07/18 00:21:33;;;;;;;6.63;2.17;;;;;15.80;101871.00;;;;10450652;28;20193;-78
2022/07/18 00:26:35;;;;;;;5.57;2.20;;;;;15.80;101863.00;;;;10479246;28;20197;-79
2022/07/18 00:31:38;;;;;;;2.87;1.83;;;;;15.70;101852.00;;;;10480458;28;20248;-79
2022/07/18 00:36:41;;;;;;;5.37;2.23;;;;;15.60;101851.00;;;;10480214;28;20186;-79
2022/07/18 00:41:49;;;;;;;3.50;2.17;;;;;15.50;101853.00;;;;10461621;28;20192;-79
2022/07/18 00:46:52;;;;;;;6.77;2.03;;;;;15.50;101841.00;;;;10477895;28;20259;-79
2022/07/18 00:51:55;;;;;;;2.87;2.20;;;;;15.40;101840.00;;;;10461887;28;20268;-79
2022/07/18 00:56:57;;;;;;;7.03;2.40;;;;;15.30;101829.00;;;;10426991;28;20225;-79
2022/07/18 01:01:59;;;;;;;6.77;2.10;;;;;15.20;101827.00;;;;10466264;28;20220;-79
2022/07/18 01:07:01;;;;;;;3.53;1.90;;;;;15.20;101823.00;;;;10404375;28;20198;-79
2022/07/18 01:12:03;;;;;;;6.20;2.80;;;;;15.10;101820.00;;;;10411605;28;20263;-79
2022/07/18 01:17:16;;;;;;;5.43;2.53;;;;;15.10;101836.00;;;;10444527;28;20198;-79
2022/07/18 01:22:19;;;;;;;3.53;2.27;;;;;15.00;101832.00;;;;10445017;28;20264;-79
2022/07/18 01:27:22;;;;;;;6.90;2.10;;;;;14.90;101821.00;;;;10476743;28;20189;-79
2022/07/18 01:32:24;;;;;;;4.07;2.13;;;;;14.90;101828.00;;;;10458043;28;20285;-79
2022/07/18 01:37:27;;;;;;;7.20;2.57;;;;;14.80;101821.00;;;;10460747;28;20249;-79
2022/07/18 01:42:29;;;;;;;3.03;2.10;;;;;14.80;101805.00;;;;10475618;28;20276;-79
2022/07/18 01:47:31;;;;;;;4.83;2.37;;;;;14.70;101816.00;;;;10404245;28;20555;-79
2022/07/18 01:52:33;;;;;;;3.93;2.53;;;;;14.70;101817.00;;;;10456340;28;20194;-78
2022/07/18 01:57:35;;;;;;;3.83;2.27;;;;;14.60;101811.00;;;;10421927;28;20235;-78
2022/07/18 02:02:38;;;;;;;7.67;2.97;;;;;14.60;101811.00;;;;10476611;28;20569;-79
2022/07/18 02:07:42;;;;;;;4.70;2.77;;;;;14.50;101804.00;;;;10427613;28;20552;-79
2022/07/18 02:12:44;;;;;;;6.77;2.27;;;;;14.50;101800.00;;;;10457844;28;20194;-78
2022/07/18 02:17:46;;;;;;;4.57;2.40;;;;;14.40;101801.00;;;;10449721;28;20201;-78
2022/07/18 02:22:48;;;;;;;6.27;2.73;;;;;14.40;101802.00;;;;10467471;28;20265;-79
2022/07/18 02:27:50;;;;;;;5.87;2.30;;;;;14.30;101801.00;;;;10482580;28;20190;-79
2022/07/18 02:32:51;;;;;;;4.50;2.63;;;;;14.30;101797.00;;;;10452226;28;20260;-78
2022/07/18 02:37:53;;;;;;;6.50;2.70;;;;;14.20;101784.00;;;;10426343;28;20198;-79
2022/07/18 02:42:55;;;;;;;5.37;2.30;;;;;14.10;101782.00;;;;10416061;28;20190;-78
2022/07/18 02:47:58;;;;;;;6.87;2.60;;;;;14.10;101781.00;;;;10450091;28;20205;-79
2022/07/18 02:52:59;;;;;;;3.90;2.30;;;;;14.00;101780.00;;;;10466510;28;20210;-79
2022/07/18 02:58:02;;;;;;;3.43;2.57;;;;;13.90;101784.00;;;;10448641;28;20204;-78
2022/07/18 03:03:03;;;;;;;6.47;3.00;;;;;13.90;101779.00;;;;10465892;28;20267;-78
2022/07/18 03:08:05;;;;;;;6.90;2.90;;;;;13.90;101773.00;;;;10449559;28;20556;-78
2022/07/18 03:13:07;;;;;;;4.57;2.50;;;;;13.90;101768.00;;;;10435977;28;20233;-78
2022/07/18 03:18:10;;;;;;;5.57;2.50;;;;;13.80;101760.00;;;;10441049;28;20213;-78
2022/07/18 03:23:12;;;;;;;5.10;2.43;;;;;13.80;101760.00;;;;10415554;28;20619;-79
2022/07/18 03:28:14;;;;;;;4.50;2.50;;;;;13.80;101753.00;;;;10432108;28;20640;-79
2022/07/18 03:33:15;;;;;;;3.83;2.47;;;;;13.70;101756.00;;;;10448760;28;20213;-79
2022/07/18 03:38:18;;;;;;;3.63;2.43;;;;;13.70;101753.00;;;;10447921;28;20653;-80
2022/07/18 03:43:20;;;;;;;5.10;2.43;;;;;13.70;101755.00;;;;10446240;28;20190;-80
2022/07/18 03:48:22;;;;;;;6.60;2.53;;;;;13.70;101750.00;;;;10448130;28;20197;-79
2022/07/18 03:53:23;;;;;;;3.73;2.90;;;;;13.70;101758.00;;;;10464149;28;20214;-80
2022/07/18 03:58:26;;;;;;;5.93;2.53;;;;;13.70;101747.00;;;;10459798;28;20201;-79
2022/07/18 04:03:28;;;;;;;4.10;2.63;;;;;13.80;101757.00;;;;10445745;28;20271;-79
2022/07/18 04:08:30;;;;;;;5.80;3.00;;;;;13.80;101750.00;;;;10463892;28;20203;-79
2022/07/18 04:13:32;;;;;;;6.67;3.50;;;;;13.90;101738.00;;;;10446983;28;20672;-80
2022/07/18 04:18:34;;;;;;;3.90;2.50;;;;;13.90;101723.00;;;;10443525;28;20193;-78
2022/07/18 04:23:43;;;;;;;7.03;2.77;;;;;14.10;101736.00;;;;10462737;28;20252;-78
2022/07/18 04:28:45;;;;;;;6.60;2.73;;;;;14.30;101732.00;;;;10478649;28;20232;-79
2022/07/18 04:33:47;;;;;;;4.37;2.67;;;;;14.60;101720.00;;;;10462154;28;20214;-78
2022/07/18 04:38:49;;;;;;;7.73;2.90;;;;;14.70;101713.00;;;;10445270;28;20224;-79
2022/07/18 04:43:52;;;;;;;8.97;3.40;;;;;14.90;101702.00;;;;10443549;28;20312;-79
2022/07/18 04:48:54;;;;;;;5.10;2.53;;;;;15.10;101712.00;;;;10437374;28;20248;-79
2022/07/18 04:53:55;;;;;;;5.13;2.73;;;;;15.20;101697.00;;;;10387790;28;20209;-79
2022/07/18 04:58:57;;;;;;;5.43;4.23;;;;;15.40;101698.00;;;;10390537;28;20244;-79
2022/07/18 05:03:59;;;;;;;7.17;2.63;;;;;15.70;101707.00;;;;10469711;28;20197;-79
2022/07/18 05:09:02;;;;;;;7.03;3.03;;;;;16.30;101711.00;;;;10445378;28;20610;-79
2022/07/18 05:14:04;;;;;;;8.07;2.70;;;;;16.70;101715.00;;;;10460315;28;20251;-79
2022/07/18 05:19:06;;;;;;;11.47;3.30;;;;;17.10;101720.00;;;;10445301;28;20178;-79
2022/07/18 05:24:08;;;;;;;8.50;2.50;;;;;17.50;101719.00;;;;10477820;28;20288;-79
2022/07/18 05:29:12;;;;;;;5.22;2.90;;;;;18.00;101734.00;;;;10430580;28;20281;-79
2022/07/18 05:34:14;;;;;;;4.97;2.65;;;;;18.50;101722.00;;;;10458436;28;20565;-79
2022/07/18 05:39:16;;;;;;;5.10;2.33;;;;;18.90;101729.00;;;;10428906;28;20281;-79
2022/07/18 05:44:21;;;;;;;3.20;2.20;;;;;19.50;101735.00;;;;10443523;28;20584;-79
2022/07/18 05:49:23;;;;;;;6.97;3.08;;;;;20.20;101726.00;;;;10462077;28;20236;-79
2022/07/18 05:54:25;;;;;;;3.88;2.17;;;;;21.00;101738.00;;;;10452490;28;20710;-79
2022/07/18 05:59:27;;;;;;;2.70;1.90;;;;;21.90;101744.00;;;;10451432;28;20223;-79
2022/07/18 06:04:29;;;;;;;3.40;1.77;;;;;22.50;101747.00;;;;10433635;28;20193;-79
2022/07/18 06:09:32;;;;;;;5.53;1.92;;;;;23.00;101751.00;;;;10411331;28;20281;-79
2022/07/18 06:14:34;;;;;;;6.47;1.80;;;;;23.40;101741.00;;;;10431364;28;20746;-79
2022/07/18 06:19:36;;;;;;;3.85;2.17;;;;;23.90;101745.00;;;;10409168;28;20198;-79
2022/07/18 06:24:38;;;;;;;5.90;2.10;;;;;24.40;101747.00;;;;10443065;28;20236;-80
2022/07/18 06:29:40;;;;;;;5.28;2.00;;;;;24.80;101751.00;;;;10394656;28;20202;-80
2022/07/18 06:34:42;;;;;;;7.20;1.90;;;;;25.20;101742.00;;;;10448153;28;20744;-80
2022/07/18 06:39:45;;;;;;;4.53;1.90;;;;;25.70;101752.00;;;;10469949;28;20235;-80
2022/07/18 06:44:47;;;;;;;5.30;2.10;;;;;26.20;101749.00;;;;10433068;28;20280;-80
2022/07/18 06:49:49;;;;;;;6.20;1.90;;;;;26.80;101744.00;;;;10448329;28;20680;-80
2022/07/18 06:54:51;;;;;;;4.75;2.00;;;;;27.30;101745.00;;;;10448261;28;20216;-81
2022/07/18 06:59:53;;;;;;;7.07;2.13;;;;;27.70;101741.00;;;;10412260;28;20577;-79
2022/07/18 07:05:00;;;;;;;3.50;2.17;;;;;28.00;101735.00;;;;10453472;28;21885;-79
2022/07/18 07:10:03;;;;;;;4.78;1.92;;;;;28.50;101734.00;;;;10461699;28;20232;-79
2022/07/18 07:15:07;;;;;;;4.07;1.80;;;;;29.10;101733.00;;;;10446303;28;20292;-80
2022/07/18 07:20:10;;;;;;;4.82;2.03;;;;;29.50;101743.00;;;;10430499;28;20233;-80
2022/07/18 07:25:13;;;;;;;4.45;2.20;;;;;29.50;101737.00;;;;10424950;28;20222;-80
2022/07/18 07:30:15;;;;;;;6.40;2.17;;;;;29.80;101731.00;;;;10414065;28;20201;-79
2022/07/18 07:35:19;;;;;;;5.00;2.00;;;;;29.90;101734.00;;;;10478093;28;20717;-80
2022/07/18 07:40:22;;;;;;;4.63;2.10;;;;;30.10;101721.00;;;;10440161;28;20236;-80
2022/07/18 07:45:24;;;;;;;4.15;2.05;;;;;30.50;101722.00;;;;10472568;28;20280;-80
2022/07/18 07:50:26;;;;;;;2.45;1.90;;;;;30.80;101727.00;;;;10413476;28;20200;-80
2022/07/18 07:55:31;;;;;;;3.08;2.10;;;;;31.10;101724.00;;;;10435212;28;20606;-79
2022/07/18 08:00:33;;;;;;;6.40;2.00;;;;;31.50;101716.00;;;;10429292;28;20225;-80
2022/07/18 08:05:38;;;;;;;4.38;2.00;;;;;31.80;101720.00;;;;10465776;28;20671;-80
2022/07/18 08:10:41;;;;;;;5.45;2.33;;;;;32.10;101713.00;;;;10455974;28;20194;-80
2022/07/18 08:15:44;;;;;;;5.80;1.85;;;;;32.50;101713.00;;;;10435248;28;20331;-80
2022/07/18 08:20:47;;;;;;;3.05;2.10;;;;;32.70;101708.00;;;;10456694;28;20294;-80
2022/07/18 08:25:48;;;;;;;7.55;2.25;;;;;32.90;101706.00;;;;10455338;28;20273;-80
2022/07/18 08:30:50;;;;;;;5.60;2.00;;;;;33.20;101704.00;;;;10447002;28;20648;-80
2022/07/18 08:35:52;;;;;;;4.35;1.70;;;;;33.50;101691.00;;;;10473653;28;20209;-80
2022/07/18 08:40:55;;;;;;;4.88;2.15;;;;;33.90;101695.00;;;;10450649;28;20564;-80
2022/07/18 08:46:02;;;;;;;3.30;1.95;;;;;34.50;101694.00;;;;10412202;28;20216;-80
2022/07/18 08:51:05;;;;;;;5.72;1.73;;;;;34.90;101693.00;;;;10448483;28;20195;-79
2022/07/18 08:56:07;;;;;;;3.95;1.90;;;;;35.30;101700.00;;;;10404528;28;20217;-80
2022/07/18 09:01:09;;;;;;;6.70;1.73;;;;;35.80;101694.00;;;;10446392;28;20225;-80
2022/07/18 09:06:13;;;;;;;6.60;2.10;;;;;36.20;101694.00;;;;10455880;28;20194;-80
2022/07/18 09:11:15;;;;;;;5.60;1.83;;;;;36.20;101703.00;;;;10422099;28;20197;-79
2022/07/18 09:16:37;;;;;;;4.25;1.92;;;;;36.40;101705.00;;;;10445248;28;20251;-79
2022/07/18 09:21:39;;;;;;;3.83;1.80;;;;;36.80;101697.00;;;;10440565;28;20197;-79
2022/07/18 09:26:43;;;;;;;2.78;1.70;;;;;37.20;101702.00;;;;10435998;28;20657;-79
2022/07/18 09:31:50;;;;;;;3.53;1.30;;;;;37.30;101708.00;;;;10448530;28;20552;-79
2022/07/18 09:36:56;;;;;;;2.78;1.38;;;;;37.20;101702.00;;;;10442441;28;20692;-79
2022/07/18 09:42:17;;;;;;;4.65;1.75;;;;;37.80;101708.00;;;;10455753;28;20205;-77
2022/07/18 09:47:20;;;;;;;7.50;1.80;;;;;37.80;101707.00;;;;10455515;28;20190;-77
2022/07/18 09:52:22;;;;;;;4.75;1.63;;;;;38.20;101699.00;;;;10438334;28;20220;-80
2022/07/18 09:57:26;;;;;;;4.15;1.73;;;;;38.70;101701.00;;;;10424040;28;20202;-76
2022/07/18 10:02:28;;;;;;;3.25;1.50;;;;;39.00;101703.00;;;;10417496;28;20662;-79
2022/07/18 10:07:31;;;;;;;2.05;1.27;;;;;39.30;101700.00;;;;10413723;28;20216;-80
2022/07/18 10:12:33;;;;;;;2.50;1.20;;;;;39.50;101704.00;;;;10429577;28;20224;-80
2022/07/18 10:17:38;;;;;;;2.30;1.40;;;;;39.80;101707.00;;;;10447290;28;20215;-79
2022/07/18 10:22:42;;;;;;;3.15;1.48;;;;;40.20;101698.00;;;;10400682;28;20185;-79
2022/07/18 10:27:54;;;;;;;2.08;1.05;;;;;40.20;101697.00;;;;10436808;28;20268;-80
2022/07/18 10:32:57;;;;;;;2.85;1.40;;;;;40.00;101694.00;;;;10431624;28;20232;-79
2022/07/18 10:38:19;;;;;;;2.67;1.45;;;;;40.10;101683.00;;;;10445125;28;20208;-79
2022/07/18 10:43:29;;;;;;;1.70;1.42;;;;;40.20;101688.00;;;;10424406;28;20194;-79
2022/07/18 10:48:37;;;;;;;1.85;1.48;;;;;40.10;101682.00;;;;10427857;28;20216;-79
2022/07/18 10:54:06;;;;;;;3.10;1.45;;;;;40.60;101687.00;;;;10448372;28;20293;-79
2022/07/18 10:59:36;;;;;;;2.72;1.67;;;;;41.00;101684.00;;;;10440075;28;20217;-80
2022/07/18 11:04:39;;;;;;;5.68;1.50;;;;;41.10;101684.00;;;;10439249;28;20713;-77
2022/07/18 11:09:44;;;;;;;3.55;1.70;;;;;41.20;101685.00;;;;10429307;28;20196;-77
2022/07/18 11:15:08;;;;;;;2.75;1.30;;;;;40.80;101673.00;;;;10445216;28;20202;-78
2022/07/18 11:20:29;;;;;;;4.43;1.60;;;;;41.00;101676.00;;;;10448621;28;20238;-78
2022/07/18 11:25:31;;;;;;;4.72;2.03;;;;;41.30;101675.00;;;;10430827;28;20213;-78
2022/07/18 11:31:11;;;;;;;5.78;1.80;;;;;41.60;101663.00;;;;10457021;28;20254;-78
2022/07/18 11:36:18;;;;;;;2.08;1.38;;;;;41.20;101654.00;;;;10460074;28;20260;-78
2022/07/18 11:41:22;;;;;;;3.85;1.65;;;;;41.40;101656.00;;;;10449658;28;20530;-78
2022/07/18 11:46:26;;;;;;;3.33;1.70;;;;;41.70;101655.00;;;;10432752;28;20198;-78
2022/07/18 11:51:37;;;;;;;6.03;1.60;;;;;41.90;101652.00;;;;10461251;28;20208;-78
2022/07/18 11:56:51;;;;;;;4.00;1.77;;;;;42.00;101641.00;;;;10411760;28;20723;-79
2022/07/18 12:01:52;;;;;;;3.70;1.30;;;;;42.10;101633.00;;;;10434815;28;20209;-78
2022/07/18 12:07:17;;;;;;;4.53;1.90;;;;;42.00;101624.00;;;;10479553;28;20193;-78
2022/07/18 12:12:21;;;;;;;2.42;1.52;;;;;42.10;101613.00;;;;10430722;28;20190;-78
2022/07/18 12:17:24;;;;;;;3.80;1.63;;;;;41.80;101616.00;;;;10441079;28;20292;-79
2022/07/18 12:22:27;;;;;;;3.08;1.80;;;;;41.80;101612.00;;;;10445868;28;20280;-78
2022/07/18 12:27:32;;;;;;;3.30;1.42;;;;;41.80;101605.00;;;;10420660;28;20722;-79
2022/07/18 12:32:54;;;;;;;2.03;1.45;;;;;41.90;101597.00;;;;10416330;28;20194;-78
2022/07/18 12:38:18;;;;;;;3.30;1.58;;;;;42.00;101599.00;;;;10461111;28;20590;-78
2022/07/18 12:43:24;;;;;;;2.75;1.50;;;;;42.30;101588.00;;;;10460135;28;20185;-79
2022/07/18 12:48:28;;;;;;;4.90;1.70;;;;;42.50;101602.00;;;;10445516;28;20181;-78
2022/07/18 12:53:32;;;;;;;3.47;1.50;;;;;42.40;101602.00;;;;10436917;28;20672;-79
2022/07/18 12:58:34;;;;;;;3.17;1.42;;;;;42.50;101598.00;;;;10450697;28;20197;-78
2022/07/18 13:03:37;;;;;;;3.33;1.50;;;;;42.60;101585.00;;;;10416260;28;20220;-78
2022/07/18 13:08:39;;;;;;;2.17;1.45;;;;;42.20;101576.00;;;;10420584;28;20192;-79
2022/07/18 13:13:41;;;;;;;1.90;1.65;;;;;42.50;101574.00;;;;10430744;28;20216;-79
2022/07/18 13:18:43;;;;;;;2.65;1.70;;;;;43.00;101565.00;;;;10436566;28;20193;-79
2022/07/18 13:23:45;;;;;;;1.90;1.27;;;;;43.20;101558.00;;;;10429240;28;20701;-79
2022/07/18 13:28:47;;;;;;;1.80;1.38;;;;;43.70;101560.00;;;;10432366;28;20189;-79
2022/07/18 13:33:52;;;;;;;5.15;1.45;;;;;43.90;101544.00;;;;10418026;28;20209;-79
2022/07/18 13:38:55;;;;;;;3.25;1.60;;;;;44.80;101549.00;;;;10431580;28;20198;-79
2022/07/18 13:43:57;;;;;;;2.38;1.52;;;;;45.20;101542.00;;;;10443311;28;20185;-79
2022/07/18 13:49:02;;;;;;;4.88;1.60;;;;;45.70;101541.00;;;;10451810;28;20221;-79
2022/07/18 13:54:07;;;;;;;6.97;1.50;;;;;45.50;101538.00;;;;10457391;28;20208;-79
2022/07/18 13:59:09;;;;;;;2.95;1.50;;;;;45.90;101528.00;;;;10417615;28;20749;-79
2022/07/18 14:04:11;;;;;;;3.70;1.33;;;;;47.10;101530.00;;;;10436655;28;20205;-79
2022/07/18 14:09:21;;;;;;;6.30;1.33;;;;;47.50;101519.00;;;;10433164;28;20181;-79
2022/07/18 14:14:23;;;;;;;3.45;1.45;;;;;47.70;101517.00;;;;10440222;28;20220;-79
2022/07/18 14:19:25;;;;;;;5.45;1.60;;;;;47.30;101521.00;;;;10410622;28;20197;-79
2022/07/18 14:24:27;;;;;;;6.10;1.73;;;;;47.10;101512.00;;;;10442192;28;20246;-78
2022/07/18 14:29:29;;;;;;;2.17;1.23;;;;;46.40;101506.00;;;;10449301;28;20189;-80
2022/07/18 14:34:32;;;;;;;2.53;1.52;;;;;45.20;101510.00;;;;10446507;28;20219;-79
2022/07/18 14:39:34;;;;;;;4.20;1.45;;;;;43.60;101514.00;;;;10433595;28;20258;-79
2022/07/18 14:44:36;;;;;;;2.15;1.60;;;;;42.80;101518.00;;;;10424206;28;20240;-80
2022/07/18 14:49:40;;;;;;;3.08;1.55;;;;;42.50;101500.00;;;;10447557;28;20193;-79
2022/07/18 14:54:42;;;;;;;3.22;1.25;;;;;42.30;101504.00;;;;10444493;28;20297;-79
2022/07/18 14:59:44;;;;;;;3.28;1.40;;;;;42.10;101505.00;;;;10459648;28;20221;-80
2022/07/18 15:04:46;;;;;;;1.50;1.40;;;;;42.00;101504.00;;;;10452552;28;20196;-80
2022/07/18 15:09:48;;;;;;;1.65;1.50;;;;;42.10;101498.00;;;;10464106;28;20192;-79
2022/07/18 15:14:50;;;;;;;3.90;1.52;;;;;41.30;101490.00;;;;10445574;28;20220;-79
2022/07/18 15:19:52;;;;;;;2.15;1.60;;;;;40.80;101494.00;;;;10419639;28;20276;-79
2022/07/18 15:24:55;;;;;;;3.92;1.30;;;;;41.00;101486.00;;;;10434689;28;20642;-79
2022/07/18 15:29:58;;;;;;;2.08;1.42;;;;;41.30;101483.00;;;;10433287;28;20265;-79
2022/07/18 15:35:15;;;;;;;3.40;1.40;;;;;41.30;101472.00;;;;10422514;28;20214;-79
2022/07/18 15:40:17;;;;;;;1.73;1.40;;;;;40.70;101475.00;;;;10429496;28;20205;-79
2022/07/18 15:45:19;;;;;;;5.68;1.67;;;;;40.00;101473.00;;;;10442739;28;20662;-79
2022/07/18 15:50:21;;;;;;;3.85;1.52;;;;;39.50;101467.00;;;;10449080;28;20275;-79
2022/07/18 15:55:23;;;;;;;7.22;1.58;;;;;39.10;101453.00;;;;10440288;28;20221;-79
2022/07/18 16:00:31;;;;;;;6.20;1.80;;;;;38.50;101446.00;;;;10463709;28;20256;-78
2022/07/18 16:05:34;;;;;;;1.88;1.40;;;;;38.00;101442.00;;;;10412592;28;20196;-78
2022/07/18 16:10:37;;;;;;;3.63;1.58;;;;;37.40;101440.00;;;;10436165;28;20208;-78
2022/07/18 16:15:39;;;;;;;2.97;1.48;;;;;36.80;101438.00;;;;10446528;28;20656;-78
2022/07/18 16:20:41;;;;;;;1.83;1.55;;;;;36.30;101437.00;;;;10431126;28;20197;-78
2022/07/18 16:25:43;;;;;;;5.32;1.77;;;;;36.10;101430.00;;;;10462842;28;20182;-78
2022/07/18 16:30:45;;;;;;;2.70;1.55;;;;;35.90;101438.00;;;;10462237;28;20248;-78
2022/07/18 16:35:47;;;;;;;1.58;1.48;;;;;35.70;101422.00;;;;10479371;28;20201;-79
2022/07/18 16:40:50;;;;;;;4.30;1.80;;;;;35.60;101422.00;;;;10409951;28;20193;-80
2022/07/18 16:45:52;;;;;;;6.78;1.90;;;;;35.40;101418.00;;;;10414653;28;20232;-79
2022/07/18 16:50:54;;;;;;;1.52;1.42;;;;;35.20;101416.00;;;;10416498;28;20194;-79
2022/07/18 16:55:57;;;;;;;1.55;1.17;;;;;35.00;101407.00;;;;10422616;28;20210;-80
2022/07/18 17:01:00;;;;;;;2.13;1.38;;;;;34.90;101398.00;;;;10455392;28;20249;-79
2022/07/18 17:06:03;;;;;;;3.72;1.42;;;;;34.70;101385.00;;;;10449492;28;20217;-79
2022/07/18 17:11:05;;;;;;;3.92;1.48;;;;;34.70;101389.00;;;;10512110;28;20216;-79
2022/07/18 17:16:08;;;;;;;2.58;1.48;;;;;34.50;101387.00;;;;10433130;28;20209;-80
2022/07/18 17:21:10;;;;;;;2.00;1.70;;;;;34.30;101383.00;;;;10425152;28;20315;-79
2022/07/18 17:26:13;;;;;;;4.15;1.42;;;;;34.20;101386.00;;;;10434125;28;20186;-79
2022/07/18 17:31:16;;;;;;;4.55;1.70;;;;;34.10;101379.00;;;;10435669;28;20200;-80
2022/07/18 17:36:20;;;;;;;4.13;1.45;;;;;34.00;101377.00;;;;10400541;28;20225;-79
2022/07/18 17:41:22;;;;;;;1.55;1.45;;;;;33.90;101377.00;;;;10457456;28;20205;-79
2022/07/18 17:46:28;;;;;;;4.63;1.45;;;;;33.70;101373.00;;;;10442515;28;20178;-79
2022/07/18 17:51:31;;;;;;;3.42;1.75;;;;;33.60;101368.00;;;;10470065;28;20197;-79
2022/07/18 17:56:35;;;;;;;3.67;1.33;;;;;33.50;101369.00;;;;10453376;28;20320;-80
2022/07/18 18:01:37;;;;;;;7.20;1.98;;;;;33.30;101372.00;;;;10438809;28;20755;-80
2022/07/18 18:06:39;;;;;;;4.20;1.85;;;;;33.10;101374.00;;;;10453744;28;20590;-80
2022/07/18 18:11:42;;;;;;;7.85;1.77;;;;;32.90;101374.00;;;;10468440;28;20186;-79
2022/07/18 18:16:44;;;;;;;7.43;1.90;;;;;32.70;101367.00;;;;10445999;28;20259;-80
2022/07/18 18:21:46;;;;;;;7.35;1.77;;;;;32.50;101367.00;;;;10445679;28;20198;-80
2022/07/18 18:26:49;;;;;;;5.45;1.88;;;;;32.30;101363.00;;;;10394789;28;20183;-80
2022/07/18 18:31:51;;;;;;;3.67;1.50;;;;;32.10;101362.00;;;;10426429;28;20250;-80
2022/07/18 18:36:57;;;;;;;4.93;1.70;;;;;31.90;101357.00;;;;10455803;28;20708;-80
2022/07/18 18:42:00;;;;;;;4.15;1.50;;;;;31.60;101346.00;;;;10434595;28;20189;-80
2022/07/18 18:47:03;;;;;;;4.10;1.60;;;;;31.30;101355.00;;;;10438046;28;20190;-80
2022/07/18 18:52:05;;;;;;;4.40;1.77;;;;;30.90;101348.00;;;;10467661;28;20193;-80
2022/07/18 18:57:07;;;;;;;2.05;1.67;;;;;30.60;101339.00;;;;10450256;28;20835;-80
2022/07/18 19:02:09;;;;;;;8.10;2.33;;;;;30.30;101339.00;;;;10467374;28;20232;-80
2022/07/18 19:07:11;;;;;;;4.85;2.22;;;;;30.00;101345.00;;;;10427365;28;20206;-81
2022/07/18 19:12:13;;;;;;;2.67;1.60;;;;;29.60;101341.00;;;;10437150;28;20195;-80
2022/07/18 19:17:15;;;;;;;2.40;2.20;;;;;29.30;101340.00;;;;10411941;28;20202;-81
2022/07/18 19:22:18;;;;;;;5.00;2.05;;;;;28.90;101340.00;;;;10432579;28;20199;-82
2022/07/18 19:27:19;;;;;;;3.03;1.98;;;;;28.50;101349.00;;;;10409156;28;20680;-80
2022/07/18 19:32:21;;;;;;;7.03;2.35;;;;;28.20;101341.00;;;;10392257;28;20643;-81
2022/07/18 19:37:23;;;;;;;3.00;1.70;;;;;27.80;101338.00;;;;10446141;28;20742;-80
2022/07/18 19:42:26;;;;;;;8.07;2.55;;;;;27.50;101347.00;;;;10464453;28;20182;-80
2022/07/18 19:47:28;;;;;;;3.45;1.85;;;;;27.10;101356.00;;;;10480396;28;20273;-80
2022/07/18 19:52:30;;;;;;;4.35;1.60;;;;;26.90;101350.00;;;;10462738;28;20559;-80
2022/07/18 19:57:31;;;;;;;7.63;2.10;;;;;26.70;101352.00;;;;10447655;28;20243;-80
2022/07/18 20:02:33;;;;;;;3.88;2.15;;;;;26.40;101357.00;;;;10434412;28;20279;-80
2022/07/18 20:07:36;;;;;;;3.10;1.90;;;;;26.20;101352.00;;;;10462011;28;20182;-80
2022/07/18 20:12:38;;;;;;;7.60;2.58;;;;;26.00;101355.00;;;;10463295;28;20260;-80
2022/07/18 20:17:40;;;;;;;5.00;2.10;;;;;25.70;101361.00;;;;10462356;28;20210;-80
2022/07/18 20:22:42;;;;;;;10.15;2.08;;;;;25.50;101371.00;;;;10429968;28;20198;-80
2022/07/18 20:27:46;;;;;;;3.55;2.05;;;;;25.40;101360.00;;;;10429549;28;20197;-80
2022/07/18 20:32:48;;;;;;;4.72;1.98;;;;;25.20;101358.00;;;;10447117;28;20292;-80
2022/07/18 20:37:51;;;;;;;4.68;2.45;;;;;25.00;101364.00;;;;10414592;28;20202;-81
2022/07/18 20:42:53;;;;;;;5.82;2.40;;;;;24.80;101362.00;;;;10445719;28;20723;-80
2022/07/18 20:47:55;;;;;;;6.55;2.58;;;;;24.60;101363.00;;;;10423707;28;20607;-80
2022/07/18 20:52:57;;;;;;;7.45;2.17;;;;;24.40;101367.00;;;;10422668;28;20299;-80
2022/07/18 20:58:01;;;;;;;5.00;1.88;;;;;24.30;101369.00;;;;10461014;28;20637;-80
2022/07/18 21:03:04;;;;;;;8.77;2.30;;;;;24.10;101369.00;;;;10447059;28;20240;-80
2022/07/18 21:08:06;;;;;;;10.77;2.00;;;;;24.00;101371.00;;;;10420665;28;20657;-79
2022/07/18 21:13:08;;;;;;;6.43;2.70;;;;;23.80;101364.00;;;;10428234;28;20197;-80
2022/07/18 21:18:10;;;;;;;12.43;2.30;;;;;23.70;101362.00;;;;10459362;28;20732;-80
2022/07/18 21:23:12;;;;;;;13.85;2.92;;;;;23.60;101374.00;;;;10439896;28;20213;-80
2022/07/18 21:28:14;;;;;;;6.43;2.50;;;;;23.40;101370.00;;;;10418490;28;20659;-80
2022/07/18 21:33:16;;;;;;;7.55;2.58;;;;;23.30;101366.00;;;;10417710;28;20675;-80
2022/07/18 21:38:18;;;;;;;7.82;2.20;;;;;23.20;101355.00;;;;10459122;28;20211;-80
2022/07/18 21:43:20;;;;;;;8.68;2.92;;;;;23.10;101362.00;;;;10428038;28;20190;-80
2022/07/18 21:48:22;;;;;;;10.35;2.60;;;;;22.90;101356.00;;;;10459537;28;20702;-80
2022/07/18 21:53:24;;;;;;;8.63;2.53;;;;;22.80;101365.00;;;;10447031;28;20208;-79
2022/07/18 21:58:26;;;;;;;13.82;3.10;;;;;22.70;101351.00;;;;10442784;28;20340;-80
2022/07/18 22:03:28;;;;;;;7.60;3.15;;;;;22.60;101349.00;;;;10422843;28;20739;-80
2022/07/18 22:08:30;;;;;;;8.07;2.80;;;;;22.50;101352.00;;;;10413888;28;20233;-80
2022/07/18 22:13:32;;;;;;;6.63;2.88;;;;;22.30;101346.00;;;;10440911;28;20305;-80
2022/07/18 22:18:34;;;;;;;14.27;3.25;;;;;22.20;101345.00;;;;10434745;28;20703;-80
2022/07/18 22:23:36;;;;;;;12.02;3.08;;;;;22.20;101347.00;;;;10413324;28;20194;-80
2022/07/18 22:28:38;;;;;;;15.63;2.78;;;;;22.10;101346.00;;;;10459510;28;20186;-80
2022/07/18 22:33:40;;;;;;;7.88;2.70;;;;;22.00;101351.00;;;;10480385;28;20296;-80
2022/07/18 22:38:42;;;;;;;5.78;2.58;;;;;21.90;101342.00;;;;10467488;28;20205;-80
2022/07/18 22:43:44;;;;;;;12.85;3.42;;;;;21.80;101343.00;;;;10426588;28;20186;-80
2022/07/18 22:48:46;;;;;;;12.73;2.83;;;;;21.60;101344.00;;;;10454675;28;20186;-80
2022/07/18 22:53:48;;;;;;;13.68;3.60;;;;;21.50;101343.00;;;;10453106;28;20698;-80
2022/07/18 22:58:50;;;;;;;14.52;3.50;;;;;21.40;101341.00;;;;10467344;28;20300;-80
2022/07/18 23:03:52;;;;;;;15.30;3.30;;;;;21.30;101331.00;;;;10452522;28;20196;-80
2022/07/18 23:08:54;;;;;;;12.48;3.30;;;;;21.10;101330.00;;;;10441695;28;20187;-80
2022/07/18 23:13:56;;;;;;;11.57;3.80;;;;;21.00;101331.00;;;;10432909;28;20293;-80
2022/07/18 23:18:59;;;;;;;13.32;3.53;;;;;20.90;101324.00;;;;10409214;28;20218;-79
2022/07/18 23:24:01;;;;;;;11.27;3.30;;;;;20.70;101313.00;;;;10425327;28;20214;-80
2022/07/18 23:29:03;;;;;;;12.32;3.70;;;;;20.60;101314.00;;;;10444010;28;20197;-79
2022/07/18 23:34:05;;;;;;;10.38;3.20;;;;;20.50;101316.00;;;;10459032;28;20576;-80
2022/07/18 23:39:07;;;;;;;9.27;3.60;;;;;20.50;101309.00;;;;10472586;28;20219;-79
2022/07/18 23:44:09;;;;;;;21.45;3.47;;;;;20.40;101299.00;;;;10407659;28;20194;-80
2022/07/18 23:49:11;;;;;;;11.85;3.13;;;;;20.30;101305.00;;;;10465326;28;20194;-79
2022/07/18 23:54:13;;;;;;;6.43;2.72;;;;;20.20;101305.00;;;;10462402;28;20205;-79
2022/07/18 23:59:15;;;;;;;3.58;2.53;;;;;20.30;101297.00;;;;10406856;28;20233;-79
